Terminal Aerodrome Forecast
Issued by NWS

Current Version | Previous Version | Text Only | Print | Product List | Glossary Off
Versions: 1 2 3 4 5 6 7 8 9 10 11 12 13 14 15 16 17 18 19 20 21 22 23

000
FTUS41 KRLX 211149
TAFCKB
TAF
KCKB 211149Z 2112/2212 00000KT 6SM BR SKC
     FM211230 00000KT P6SM SKC
     FM211600 VRB03KT P6SM FEW050
     FM212300 00000KT P6SM SCT250=

USA.gov is the U.S. government's official web portal to all federal, state and local government web resources and services.